sensor_id;sensor_type;location;lat;lon;timestamp;pressure;altitude;pressure_sealevel;temperature;humidity
60820;BME280;46641;48.904;9.126;2022-09-03T00:03:28;98150.97;;;25.14;41.54
60820;BME280;46641;48.904;9.126;2022-09-03T00:08:35;98156.78;;;25.11;41.33
60820;BME280;46641;48.904;9.126;2022-09-03T00:13:32;98164.03;;;25.11;41.96
60820;BME280;46641;48.904;9.126;2022-09-03T00:18:26;98148.44;;;25.08;42.11
60820;BME280;46641;48.904;9.126;2022-09-03T00:23:25;98146.03;;;25.06;41.73
60820;BME280;46641;48.904;9.126;2022-09-03T00:28:24;98145.72;;;25.03;41.65
60820;BME280;46641;48.904;9.126;2022-09-03T00:33:28;98156.44;;;25.03;41.81
60820;BME280;46641;48.904;9.126;2022-09-03T00:38:19;98164.13;;;24.99;42.52
60820;BME280;46641;48.904;9.126;2022-09-03T00:43:21;98155.56;;;24.97;41.89
60820;BME280;46641;48.904;9.126;2022-09-03T00:48:29;98161.97;;;24.96;42.00
60820;BME280;46641;48.904;9.126;2022-09-03T00:53:29;98149.91;;;24.93;42.29
60820;BME280;46641;48.904;9.126;2022-09-03T00:58:43;98144.78;;;24.92;42.27
60820;BME280;46641;48.904;9.126;2022-09-03T01:03:48;98154.69;;;24.91;42.08
60820;BME280;46641;48.904;9.126;2022-09-03T01:08:58;98149.81;;;24.88;41.89
60820;BME280;46641;48.904;9.126;2022-09-03T01:19:13;98156.97;;;24.83;42.46
60820;BME280;46641;48.904;9.126;2022-09-03T01:24:26;98162.09;;;24.84;42.23
60820;BME280;46641;48.904;9.126;2022-09-03T01:29:31;98151.63;;;24.83;42.35
60820;BME280;46641;48.904;9.126;2022-09-03T01:34:34;98136.09;;;24.80;42.43
60820;BME280;46641;48.904;9.126;2022-09-03T01:39:52;98144.59;;;24.77;42.34
60820;BME280;46641;48.904;9.126;2022-09-03T01:50:15;98148.75;;;24.67;42.44
60820;BME280;46641;48.904;9.126;2022-09-03T01:55:53;98164.00;;;24.67;42.98
60820;BME280;46641;48.904;9.126;2022-09-03T02:00:39;98166.44;;;24.68;42.82
60820;BME280;46641;48.904;9.126;2022-09-03T02:05:32;98154.59;;;24.64;43.19
60820;BME280;46641;48.904;9.126;2022-09-03T02:15:41;98148.44;;;24.64;42.70
60820;BME280;46641;48.904;9.126;2022-09-03T02:20:32;98153.50;;;24.60;42.98
60820;BME280;46641;48.904;9.126;2022-09-03T02:25:28;98153.50;;;24.60;42.62
60820;BME280;46641;48.904;9.126;2022-09-03T02:30:18;98160.94;;;24.58;43.20
60820;BME280;46641;48.904;9.126;2022-09-03T02:35:09;98165.19;;;24.54;43.43
60820;BME280;46641;48.904;9.126;2022-09-03T02:39:59;98160.06;;;24.53;43.32
60820;BME280;46641;48.904;9.126;2022-09-03T02:44:53;98160.88;;;24.53;43.28
60820;BME280;46641;48.904;9.126;2022-09-03T02:49:48;98150.66;;;24.50;43.02
60820;BME280;46641;48.904;9.126;2022-09-03T02:54:39;98151.97;;;24.47;43.20
60820;BME280;46641;48.904;9.126;2022-09-03T02:59:29;98141.50;;;24.46;43.37
60820;BME280;46641;48.904;9.126;2022-09-03T03:04:20;98147.91;;;24.45;43.67
60820;BME280;46641;48.904;9.126;2022-09-03T03:09:11;98143.63;;;24.44;43.76
60820;BME280;46641;48.904;9.126;2022-09-03T03:14:01;98146.81;;;24.41;43.51
60820;BME280;46641;48.904;9.126;2022-09-03T03:18:52;98142.72;;;24.38;43.34
60820;BME280;46641;48.904;9.126;2022-09-03T03:23:43;98151.53;;;24.39;43.29
60820;BME280;46641;48.904;9.126;2022-09-03T03:28:34;98156.91;;;24.39;43.53
60820;BME280;46641;48.904;9.126;2022-09-03T03:33:24;98162.25;;;24.39;43.27
60820;BME280;46641;48.904;9.126;2022-09-03T03:38:15;98162.66;;;24.31;43.48
60820;BME280;46641;48.904;9.126;2022-09-03T03:43:05;98164.50;;;24.30;43.39
60820;BME280;46641;48.904;9.126;2022-09-03T03:47:56;98166.16;;;24.31;43.55
60820;BME280;46641;48.904;9.126;2022-09-03T03:52:47;98159.16;;;24.30;43.23
60820;BME280;46641;48.904;9.126;2022-09-03T03:57:37;98156.44;;;24.25;43.55
60820;BME280;46641;48.904;9.126;2022-09-03T04:02:28;98166.31;;;24.24;43.28
60820;BME280;46641;48.904;9.126;2022-09-03T04:07:18;98164.94;;;24.22;43.61
60820;BME280;46641;48.904;9.126;2022-09-03T04:12:08;98159.81;;;24.20;43.56
60820;BME280;46641;48.904;9.126;2022-09-03T04:16:59;98149.59;;;24.17;43.91
60820;BME280;46641;48.904;9.126;2022-09-03T04:21:49;98158.69;;;24.16;43.95
60820;BME280;46641;48.904;9.126;2022-09-03T04:26:39;98170.19;;;24.17;43.64
60820;BME280;46641;48.904;9.126;2022-09-03T04:31:30;98165.34;;;24.14;43.75
60820;BME280;46641;48.904;9.126;2022-09-03T04:36:23;98166.97;;;24.15;43.61
60820;BME280;46641;48.904;9.126;2022-09-03T04:41:18;98165.81;;;24.11;43.60
60820;BME280;46641;48.904;9.126;2022-09-03T04:46:11;98174.91;;;24.10;43.75
60820;BME280;46641;48.904;9.126;2022-09-03T04:51:05;98172.50;;;24.08;43.58
60820;BME280;46641;48.904;9.126;2022-09-03T04:55:55;98164.94;;;24.05;43.79
60820;BME280;46641;48.904;9.126;2022-09-03T05:00:46;98175.66;;;24.05;43.90
60820;BME280;46641;48.904;9.126;2022-09-03T05:05:36;98171.91;;;24.06;43.89
60820;BME280;46641;48.904;9.126;2022-09-03T05:10:27;98179.13;;;24.06;43.73
60820;BME280;46641;48.904;9.126;2022-09-03T05:15:17;98178.31;;;24.05;43.80
60820;BME280;46641;48.904;9.126;2022-09-03T05:20:08;98178.81;;;24.02;43.99
60820;BME280;46641;48.904;9.126;2022-09-03T05:24:59;98179.84;;;24.01;43.73
60820;BME280;46641;48.904;9.126;2022-09-03T05:29:49;98178.47;;;23.98;44.18
60820;BME280;46641;48.904;9.126;2022-09-03T05:34:39;98178.47;;;23.98;44.05
60820;BME280;46641;48.904;9.126;2022-09-03T05:39:29;98192.31;;;23.95;43.91
60820;BME280;46641;48.904;9.126;2022-09-03T05:44:20;98188.34;;;23.98;44.00
60820;BME280;46641;48.904;9.126;2022-09-03T05:49:13;98176.84;;;23.97;43.90
60820;BME280;46641;48.904;9.126;2022-09-03T05:54:03;98188.00;;;23.94;43.88
60820;BME280;46641;48.904;9.126;2022-09-03T05:58:57;98185.13;;;23.96;44.19
60820;BME280;46641;48.904;9.126;2022-09-03T06:03:58;98196.28;;;23.93;43.62
60820;BME280;46641;48.904;9.126;2022-09-03T06:08:49;98197.00;;;23.88;44.35
60820;BME280;46641;48.904;9.126;2022-09-03T06:13:40;98198.88;;;23.88;44.35
60820;BME280;46641;48.904;9.126;2022-09-03T06:18:31;98199.66;;;23.88;44.03
60820;BME280;46641;48.904;9.126;2022-09-03T06:23:22;98202.00;;;23.85;44.38
60820;BME280;46641;48.904;9.126;2022-09-03T06:28:12;98203.66;;;23.86;44.21
60820;BME280;46641;48.904;9.126;2022-09-03T06:33:03;98207.69;;;23.88;44.17
60820;BME280;46641;48.904;9.126;2022-09-03T06:37:53;98211.19;;;23.89;44.19
60820;BME280;46641;48.904;9.126;2022-09-03T06:42:43;98206.19;;;23.92;44.26
60820;BME280;46641;48.904;9.126;2022-09-03T06:47:34;98204.53;;;23.91;44.40
60820;BME280;46641;48.904;9.126;2022-09-03T06:52:25;98215.72;;;23.88;44.26
60820;BME280;46641;48.904;9.126;2022-09-03T06:57:16;98216.53;;;23.89;44.28
60820;BME280;46641;48.904;9.126;2022-09-03T07:02:06;98212.81;;;23.90;44.58
60820;BME280;46641;48.904;9.126;2022-09-03T07:06:57;98208.53;;;23.89;44.39
60820;BME280;46641;48.904;9.126;2022-09-03T07:11:47;98202.91;;;23.90;44.41
60820;BME280;46641;48.904;9.126;2022-09-03T07:16:38;98206.97;;;23.93;44.46
60820;BME280;46641;48.904;9.126;2022-09-03T07:21:32;98208.59;;;23.94;44.14
60820;BME280;46641;48.904;9.126;2022-09-03T07:26:26;98214.25;;;23.97;44.54
60820;BME280;46641;48.904;9.126;2022-09-03T07:31:19;98227.41;;;23.99;44.35
60820;BME280;46641;48.904;9.126;2022-09-03T07:36:13;98227.41;;;23.99;44.33
60820;BME280;46641;48.904;9.126;2022-09-03T07:41:06;98229.81;;;24.00;44.35
60820;BME280;46641;48.904;9.126;2022-09-03T07:45:57;98221.59;;;24.02;44.68
60820;BME280;46641;48.904;9.126;2022-09-03T07:50:47;98224.81;;;24.04;44.29
60820;BME280;46641;48.904;9.126;2022-09-03T07:55:37;98225.38;;;24.06;44.22
60820;BME280;46641;48.904;9.126;2022-09-03T08:00:28;98240.38;;;24.07;44.32
60820;BME280;46641;48.904;9.126;2022-09-03T08:05:19;98238.28;;;24.09;44.59
60820;BME280;46641;48.904;9.126;2022-09-03T08:10:09;98223.03;;;24.10;44.70
60820;BME280;46641;48.904;9.126;2022-09-03T08:14:59;98245.81;;;24.12;44.17
60820;BME280;46641;48.904;9.126;2022-09-03T08:19:50;98255.56;;;24.18;44.27
60820;BME280;46641;48.904;9.126;2022-09-03T08:24:40;98256.91;;;24.21;44.27
60820;BME280;46641;48.904;9.126;2022-09-03T08:29:31;98251.56;;;24.21;44.34
60820;BME280;46641;48.904;9.126;2022-09-03T08:34:21;98255.41;;;24.25;44.15
60820;BME280;46641;48.904;9.126;2022-09-03T08:39:13;98256.84;;;24.33;44.18
60820;BME280;46641;48.904;9.126;2022-09-03T08:49:43;98270.88;;;24.40;44.36
60820;BME280;46641;48.904;9.126;2022-09-03T08:54:35;98276.22;;;24.40;44.17
60820;BME280;46641;48.904;9.126;2022-09-03T08:59:29;98280.09;;;24.44;44.18
60820;BME280;46641;48.904;9.126;2022-09-03T09:04:42;98288.19;;;24.49;43.97
60820;BME280;46641;48.904;9.126;2022-09-03T09:09:45;98296.53;;;24.53;43.81
60820;BME280;46641;48.904;9.126;2022-09-03T09:25:05;98296.94;;;24.61;43.88
60820;BME280;46641;48.904;9.126;2022-09-03T09:30:00;98291.91;;;24.65;43.79
60820;BME280;46641;48.904;9.126;2022-09-03T09:34:53;98299.44;;;24.68;43.87
60820;BME280;46641;48.904;9.126;2022-09-03T09:39:58;98299.19;;;24.69;43.31
60820;BME280;46641;48.904;9.126;2022-09-03T09:44:50;98287.78;;;24.74;43.97
60820;BME280;46641;48.904;9.126;2022-09-03T09:54:37;98270.56;;;24.87;43.76
60820;BME280;46641;48.904;9.126;2022-09-03T09:59:28;98263.91;;;24.89;43.88
60820;BME280;46641;48.904;9.126;2022-09-03T10:04:29;98280.84;;;24.95;43.59
60820;BME280;46641;48.904;9.126;2022-09-03T10:09:24;98275.00;;;24.98;44.14
60820;BME280;46641;48.904;9.126;2022-09-03T10:14:35;98269.78;;;25.08;44.06
60820;BME280;46641;48.904;9.126;2022-09-03T10:25:09;98253.94;;;25.24;44.10
60820;BME280;46641;48.904;9.126;2022-09-03T10:30:00;98249.47;;;25.29;44.30
60820;BME280;46641;48.904;9.126;2022-09-03T10:40:14;98259.59;;;25.49;43.87
60820;BME280;46641;48.904;9.126;2022-09-03T10:55:34;98247.69;;;25.84;43.93
60820;BME280;46641;48.904;9.126;2022-09-03T11:00:28;98242.44;;;25.94;44.34
60820;BME280;46641;48.904;9.126;2022-09-03T11:05:40;98237.16;;;26.04;44.11
60820;BME280;46641;48.904;9.126;2022-09-03T11:10:34;98236.13;;;26.10;44.74
60820;BME280;46641;48.904;9.126;2022-09-03T11:15:37;98223.63;;;26.21;44.26
60820;BME280;46641;48.904;9.126;2022-09-03T11:20:30;98222.88;;;26.31;44.22
60820;BME280;46641;48.904;9.126;2022-09-03T11:25:25;98213.31;;;26.40;44.36
60820;BME280;46641;48.904;9.126;2022-09-03T11:30:28;98212.84;;;26.48;44.30
60820;BME280;46641;48.904;9.126;2022-09-03T11:35:27;98211.00;;;26.54;44.27
60820;BME280;46641;48.904;9.126;2022-09-03T11:40:18;98208.88;;;26.56;44.19
60820;BME280;46641;48.904;9.126;2022-09-03T11:45:23;98214.56;;;26.65;43.87
60820;BME280;46641;48.904;9.126;2022-09-03T11:50:31;98213.00;;;26.74;43.84
60820;BME280;46641;48.904;9.126;2022-09-03T11:55:30;98194.75;;;26.76;43.79
60820;BME280;46641;48.904;9.126;2022-09-03T12:00:21;98213.00;;;26.69;44.48
60820;BME280;46641;48.904;9.126;2022-09-03T12:06:22;98215.16;;;26.72;44.28
60820;BME280;46641;48.904;9.126;2022-09-03T12:11:08;98235.50;;;26.68;44.08
60820;BME280;46641;48.904;9.126;2022-09-03T12:16:13;98233.91;;;26.67;44.28
60820;BME280;46641;48.904;9.126;2022-09-03T12:21:09;98213.78;;;26.69;44.21
60820;BME280;46641;48.904;9.126;2022-09-03T12:26:06;98237.97;;;26.74;43.76
60820;BME280;46641;48.904;9.126;2022-09-03T12:31:07;98247.41;;;26.77;43.44
60820;BME280;46641;48.904;9.126;2022-09-03T12:36:09;98252.81;;;26.82;43.45
60820;BME280;46641;48.904;9.126;2022-09-03T12:41:04;98253.91;;;26.86;43.44
60820;BME280;46641;48.904;9.126;2022-09-03T12:45:54;98268.47;;;26.95;43.17
60820;BME280;46641;48.904;9.126;2022-09-03T12:50:46;98262.56;;;26.98;43.15
60820;BME280;46641;48.904;9.126;2022-09-03T12:55:41;98291.56;;;26.96;43.40
60820;BME280;46641;48.904;9.126;2022-09-03T13:00:35;98301.22;;;26.97;43.27
60820;BME280;46641;48.904;9.126;2022-09-03T13:05:33;98288.34;;;26.94;43.55
60820;BME280;46641;48.904;9.126;2022-09-03T13:10:30;98282.97;;;26.94;43.43
60820;BME280;46641;48.904;9.126;2022-09-03T13:15:23;98280.25;;;26.89;43.23
60820;BME280;46641;48.904;9.126;2022-09-03T13:20:30;98275.38;;;26.86;43.71
60820;BME280;46641;48.904;9.126;2022-09-03T13:30:21;98286.34;;;26.79;43.48
60820;BME280;46641;48.904;9.126;2022-09-03T13:45:20;98264.00;;;26.69;44.02
60820;BME280;46641;48.904;9.126;2022-09-03T13:50:20;98251.91;;;26.66;43.61
60820;BME280;46641;48.904;9.126;2022-09-03T13:55:36;98248.94;;;26.63;43.57
60820;BME280;46641;48.904;9.126;2022-09-03T14:06:00;98245.66;;;26.55;43.93
60820;BME280;46641;48.904;9.126;2022-09-03T14:11:00;98249.91;;;26.51;43.95
60820;BME280;46641;48.904;9.126;2022-09-03T14:16:28;98242.38;;;26.48;43.65
60820;BME280;46641;48.904;9.126;2022-09-03T14:21:28;98251.47;;;26.47;43.60
60820;BME280;46641;48.904;9.126;2022-09-03T14:26:28;98249.84;;;26.46;44.13
60820;BME280;46641;48.904;9.126;2022-09-03T14:36:54;98263.50;;;26.40;44.12
60820;BME280;46641;48.904;9.126;2022-09-03T14:46:56;98290.28;;;26.34;44.15
60820;BME280;46641;48.904;9.126;2022-09-03T15:02:41;98295.59;;;26.29;43.79
60820;BME280;46641;48.904;9.126;2022-09-03T15:07:42;98301.78;;;26.30;44.82
60820;BME280;46641;48.904;9.126;2022-09-03T15:13:14;98290.75;;;26.26;44.11
60820;BME280;46641;48.904;9.126;2022-09-03T15:23:52;98290.69;;;26.21;45.40
60820;BME280;46641;48.904;9.126;2022-09-03T15:39:10;98288.28;;;26.20;44.48
60820;BME280;46641;48.904;9.126;2022-09-03T15:44:10;98292.00;;;26.19;44.13
60820;BME280;46641;48.904;9.126;2022-09-03T15:49:05;98292.00;;;26.19;44.32
60820;BME280;46641;48.904;9.126;2022-09-03T15:59:17;98290.91;;;26.15;45.31
60820;BME280;46641;48.904;9.126;2022-09-03T16:14:40;98294.66;;;26.14;45.07
60820;BME280;46641;48.904;9.126;2022-09-03T16:19:41;98288.78;;;26.17;44.93
60820;BME280;46641;48.904;9.126;2022-09-03T16:24:50;98289.81;;;26.16;45.28
60820;BME280;46641;48.904;9.126;2022-09-03T16:29:55;98289.03;;;26.15;45.15
60820;BME280;46641;48.904;9.126;2022-09-03T16:35:02;98281.78;;;26.16;44.51
60820;BME280;46641;48.904;9.126;2022-09-03T16:40:21;98283.91;;;26.14;45.13
60820;BME280;46641;48.904;9.126;2022-09-03T16:56:08;98292.47;;;26.10;44.32
60820;BME280;46641;48.904;9.126;2022-09-03T17:01:37;98287.63;;;26.07;45.00
60820;BME280;46641;48.904;9.126;2022-09-03T17:06:43;98292.72;;;26.09;45.67
60820;BME280;46641;48.904;9.126;2022-09-03T17:27:29;98292.69;;;26.04;45.78
60820;BME280;46641;48.904;9.126;2022-09-03T17:32:47;98291.88;;;26.03;45.48
60820;BME280;46641;48.904;9.126;2022-09-03T17:38:16;98302.84;;;26.02;44.84
60820;BME280;46641;48.904;9.126;2022-09-03T17:43:25;98309.00;;;26.02;45.42
60820;BME280;46641;48.904;9.126;2022-09-03T18:04:30;98340.59;;;25.95;45.47
60820;BME280;46641;48.904;9.126;2022-09-03T18:14:24;98350.50;;;25.95;44.89
60820;BME280;46641;48.904;9.126;2022-09-03T18:30:04;98358.75;;;25.88;45.88
60820;BME280;46641;48.904;9.126;2022-09-03T18:35:14;98364.03;;;25.83;44.52
60820;BME280;46641;48.904;9.126;2022-09-03T18:40:27;98373.63;;;25.79;45.04
60820;BME280;46641;48.904;9.126;2022-09-03T18:45:51;98374.91;;;25.76;45.31
60820;BME280;46641;48.904;9.126;2022-09-03T18:56:35;98385.84;;;25.70;45.48
60820;BME280;46641;48.904;9.126;2022-09-03T19:01:45;98380.97;;;25.67;44.73
60820;BME280;46641;48.904;9.126;2022-09-03T19:07:00;98384.72;;;25.65;44.77
60820;BME280;46641;48.904;9.126;2022-09-03T19:12:41;98384.63;;;25.60;45.30
60820;BME280;46641;48.904;9.126;2022-09-03T19:23:25;98385.06;;;25.52;45.11
60820;BME280;46641;48.904;9.126;2022-09-03T19:28:39;98388.81;;;25.51;45.67
60820;BME280;46641;48.904;9.126;2022-09-03T19:34:11;98398.41;;;25.47;45.71
60820;BME280;46641;48.904;9.126;2022-09-03T19:45:00;98413.34;;;25.43;45.82
60820;BME280;46641;48.904;9.126;2022-09-03T19:50:19;98417.09;;;25.42;45.77
60820;BME280;46641;48.904;9.126;2022-09-03T19:55:33;98422.94;;;25.39;45.61
60820;BME280;46641;48.904;9.126;2022-09-03T20:00:43;98425.31;;;25.35;44.97
60820;BME280;46641;48.904;9.126;2022-09-03T20:05:52;98426.03;;;25.31;44.88
60820;BME280;46641;48.904;9.126;2022-09-03T20:11:02;98427.56;;;25.27;45.16
60820;BME280;46641;48.904;9.126;2022-09-03T20:26:26;98429.63;;;25.20;45.29
60820;BME280;46641;48.904;9.126;2022-09-03T20:31:34;98435.47;;;25.16;46.44
60820;BME280;46641;48.904;9.126;2022-09-03T20:36:46;98443.72;;;25.15;45.64
60820;BME280;46641;48.904;9.126;2022-09-03T20:51:44;98453.28;;;25.11;45.53
60820;BME280;46641;48.904;9.126;2022-09-03T21:02:12;98452.69;;;25.09;45.72
60820;BME280;46641;48.904;9.126;2022-09-03T21:07:20;98443.31;;;25.06;46.26
60820;BME280;46641;48.904;9.126;2022-09-03T21:27:15;98461.06;;;24.95;45.50
60820;BME280;46641;48.904;9.126;2022-09-03T21:37:03;98468.44;;;24.88;45.43
60820;BME280;46641;48.904;9.126;2022-09-03T21:42:01;98465.19;;;24.86;45.92
60820;BME280;46641;48.904;9.126;2022-09-03T21:47:06;98460.88;;;24.85;46.04
60820;BME280;46641;48.904;9.126;2022-09-03T21:52:13;98478.22;;;24.83;45.96
60820;BME280;46641;48.904;9.126;2022-09-03T22:17:46;98499.13;;;24.69;46.20
60820;BME280;46641;48.904;9.126;2022-09-03T22:22:55;98494.03;;;24.67;46.55
60820;BME280;46641;48.904;9.126;2022-09-03T22:27:52;98497.19;;;24.64;46.40
60820;BME280;46641;48.904;9.126;2022-09-03T22:33:02;98502.28;;;24.66;46.70
60820;BME280;46641;48.904;9.126;2022-09-03T22:58:23;98508.84;;;24.58;46.51
60820;BME280;46641;48.904;9.126;2022-09-03T23:03:20;98501.41;;;24.60;46.15
60820;BME280;46641;48.904;9.126;2022-09-03T23:08:18;98500.00;;;24.58;45.93
60820;BME280;46641;48.904;9.126;2022-09-03T23:18:24;98503.63;;;24.52;45.79
60820;BME280;46641;48.904;9.126;2022-09-03T23:23:21;98502.50;;;24.47;46.23
60820;BME280;46641;48.904;9.126;2022-09-03T23:28:33;98502.16;;;24.44;46.32
60820;BME280;46641;48.904;9.126;2022-09-03T23:33:27;98503.78;;;24.45;45.68
60820;BME280;46641;48.904;9.126;2022-09-03T23:39:21;98510.41;;;24.42;45.59
60820;BME280;46641;48.904;9.126;2022-09-03T23:43:49;98520.97;;;24.37;46.71
60820;BME280;46641;48.904;9.126;2022-09-03T23:54:33;98528.09;;;24.32;46.71
